Time;durP1;ratioP1;P1;durP2;ratioP2;P2;SDS_P1;SDS_P2;PMS_P1;PMS_P2;Temp;Humidity;BMP_temperature;BMP_pressure;BME280_temperature;BME280_humidity;BME280_pressure;Samples;Min_cycle;Max_cycle;Signal;HPM_P1;HPM_P2
2022/11/17 00:00:16;;;;;;;17.87;13.07;;;11.60;99.90;;;;;;5093855;28;20192;-70
2022/11/17 00:02:42;;;;;;;19.40;15.00;;;11.60;99.90;;;;;;5093994;28;20455;-70
2022/11/17 00:05:08;;;;;;;16.97;13.33;;;11.60;99.90;;;;;;5092435;28;20420;-70
2022/11/17 00:07:33;;;;;;;19.13;13.57;;;11.60;99.90;;;;;;5093906;28;20265;-71
2022/11/17 00:09:59;;;;;;;18.20;12.80;;;11.60;99.90;;;;;;5092491;28;20235;-71
2022/11/17 00:15:09;;;;;;;18.10;12.63;;;11.60;99.90;;;;;;5094020;28;20211;-70
2022/11/17 00:17:34;;;;;;;16.60;11.93;;;11.60;99.90;;;;;;5093876;28;20941;-70
2022/11/17 00:22:44;;;;;;;16.87;12.17;;;11.60;99.90;;;;;;5093981;28;20199;-70
2022/11/17 00:25:10;;;;;;;14.77;11.77;;;11.60;99.90;;;;;;5093435;28;20444;-71
2022/11/17 00:27:35;;;;;;;15.50;11.93;;;11.60;99.90;;;;;;5093833;28;20180;-70
2022/11/17 00:36:07;;;;;;;17.27;11.30;;;11.50;99.90;;;;;;5093476;28;20466;-70
2022/11/17 00:38:32;;;;;;;16.00;11.97;;;11.50;99.90;;;;;;5093421;28;20476;-70
2022/11/17 00:40:58;;;;;;;14.23;11.40;;;11.50;99.90;;;;;;5092203;28;20200;-70
2022/11/17 00:43:24;;;;;;;14.17;11.87;;;11.50;99.90;;;;;;5093786;28;20234;-70
2022/11/17 00:45:49;;;;;;;18.67;12.83;;;11.50;99.90;;;;;;5093435;28;20192;-71
2022/11/17 00:48:15;;;;;;;15.83;11.50;;;11.40;99.90;;;;;;5093792;28;20181;-70
2022/11/17 00:50:41;;;;;;;18.07;12.23;;;11.40;99.90;;;;;;5092068;28;20230;-70
2022/11/17 00:53:07;;;;;;;16.40;12.33;;;11.40;99.90;;;;;;5097497;28;20778;-71
2022/11/17 00:55:32;;;;;;;17.10;12.27;;;11.40;99.90;;;;;;5095897;28;20199;-71
2022/11/17 00:57:58;;;;;;;17.83;12.43;;;11.40;99.90;;;;;;5097304;28;20814;-70
2022/11/17 01:00:24;;;;;;;19.17;13.73;;;11.40;99.90;;;;;;5097131;28;20203;-70
2022/11/17 01:02:50;;;;;;;19.37;13.50;;;11.30;99.90;;;;;;5095980;28;20597;-70
2022/11/17 01:05:16;;;;;;;20.43;13.83;;;11.30;99.90;;;;;;5097052;28;20210;-71
2022/11/17 01:07:41;;;;;;;21.93;15.23;;;11.30;99.90;;;;;;5096975;28;20792;-71
2022/11/17 01:10:08;;;;;;;22.20;15.03;;;11.30;99.90;;;;;;5096872;28;20417;-70
2022/11/17 01:12:34;;;;;;;23.80;15.32;;;11.30;99.90;;;;;;5095744;28;20538;-71
2022/11/17 01:14:59;;;;;;;27.10;15.70;;;11.30;99.90;;;;;;5096957;28;20195;-71
2022/11/17 01:17:25;;;;;;;26.70;16.40;;;11.30;99.90;;;;;;5096828;28;20187;-71
2022/11/17 01:19:50;;;;;;;31.33;17.40;;;11.30;99.90;;;;;;5095482;28;20211;-70
2022/11/17 01:22:16;;;;;;;25.90;17.07;;;11.30;99.90;;;;;;5096706;28;20263;-70
2022/11/17 01:24:42;;;;;;;24.93;16.27;;;11.30;99.90;;;;;;5096475;28;20191;-70
2022/11/17 01:27:08;;;;;;;30.87;17.20;;;11.30;99.90;;;;;;5095414;28;20413;-70
2022/11/17 01:29:33;;;;;;;28.30;17.90;;;11.30;99.90;;;;;;5096606;28;20233;-70
2022/11/17 01:31:59;;;;;;;22.77;16.77;;;11.30;99.90;;;;;;5096701;28;20171;-71
2022/11/17 01:34:25;;;;;;;26.20;16.47;;;11.30;99.90;;;;;;5096444;28;20267;-70
2022/11/17 01:39:35;;;;;;;29.98;18.90;;;11.20;99.90;;;;;;5096330;28;20227;-70
2022/11/17 01:42:16;;;;;;;31.43;18.07;;;11.20;99.90;;;;;;5094989;28;20172;-70
2022/11/17 01:44:52;;;;;;;30.50;18.30;;;11.20;99.90;;;;;;5096304;28;20192;-70
2022/11/17 01:47:36;;;;;;;27.20;17.67;;;11.20;99.90;;;;;;5096333;28;20519;-71
2022/11/17 01:50:18;;;;;;;30.88;19.23;;;11.10;99.90;;;;;;5094889;28;20199;-70
2022/11/17 01:52:47;;;;;;;26.08;17.95;;;11.10;99.90;;;;;;5095261;28;20207;-70
2022/11/17 01:55:13;;;;;;;25.92;17.60;;;11.10;99.90;;;;;;5096034;28;20223;-70
2022/11/17 01:57:46;;;;;;;29.13;19.40;;;11.10;99.90;;;;;;5094741;28;20180;-70
2022/11/17 02:00:12;;;;;;;30.10;18.30;;;11.10;99.90;;;;;;5096290;28;20193;-70
2022/11/17 02:02:39;;;;;;;27.63;18.58;;;11.00;99.90;;;;;;5093761;28;20515;-70
2022/11/17 02:05:28;;;;;;;25.55;17.25;;;11.00;99.90;;;;;;5095748;28;20240;-70
2022/11/17 02:07:55;;;;;;;29.83;18.70;;;11.00;99.90;;;;;;5096240;28;20177;-70
2022/11/17 02:10:21;;;;;;;27.17;18.47;;;11.00;99.90;;;;;;5095725;28;20192;-70
2022/11/17 02:12:47;;;;;;;30.17;18.20;;;11.00;99.90;;;;;;5096057;28;20432;-71
2022/11/17 02:15:13;;;;;;;33.90;19.23;;;11.00;99.90;;;;;;5094302;28;20200;-71
2022/11/17 02:17:42;;;;;;;28.67;17.33;;;11.00;99.90;;;;;;5095775;28;20417;-70
2022/11/17 02:20:15;;;;;;;31.70;19.00;;;11.00;99.90;;;;;;5095535;28;20814;-70
2022/11/17 02:23:02;;;;;;;30.15;18.88;;;11.00;99.90;;;;;;5095769;28;20176;-70
2022/11/17 02:25:41;;;;;;;27.20;18.13;;;11.00;99.90;;;;;;5094078;28;20240;-70
2022/11/17 02:28:42;;;;;;;30.97;18.70;;;11.00;99.90;;;;;;5095335;28;20241;-70
2022/11/17 02:31:24;;;;;;;30.55;18.35;;;11.00;99.90;;;;;;5094094;28;20780;-70
2022/11/17 02:34:05;;;;;;;30.08;18.38;;;11.00;99.90;;;;;;5094308;28;20270;-70
2022/11/17 02:36:44;;;;;;;29.55;17.50;;;11.00;99.90;;;;;;5094109;28;20629;-71
2022/11/17 02:39:21;;;;;;;29.83;17.85;;;11.00;99.90;;;;;;5095217;28;20554;-70
2022/11/17 02:41:55;;;;;;;32.13;18.80;;;11.10;99.90;;;;;;5095256;28;20251;-70
2022/11/17 02:45:01;;;;;;;29.25;16.58;;;11.00;99.90;;;;;;5093930;28;20625;-71
2022/11/17 02:47:30;;;;;;;31.50;18.60;;;11.00;99.90;;;;;;5095176;28;20702;-70
2022/11/17 02:50:04;;;;;;;25.90;15.48;;;11.00;99.90;;;;;;5094976;28;20777;-70
2022/11/17 02:52:30;;;;;;;32.45;16.45;;;11.00;99.90;;;;;;5095304;28;20701;-70
2022/11/17 02:55:05;;;;;;;30.02;18.48;;;11.00;99.90;;;;;;5094894;28;20199;-70
2022/11/17 02:57:33;;;;;;;28.17;17.08;;;10.90;99.90;;;;;;5094954;28;20184;-70
2022/11/17 03:00:02;;;;;;;28.33;17.50;;;10.90;99.90;;;;;;5093472;28;20720;-71
2022/11/17 03:02:51;;;;;;;31.58;18.20;;;10.90;99.90;;;;;;5095019;28;20191;-71
2022/11/17 03:05:47;;;;;;;29.58;19.20;;;10.90;99.90;;;;;;5094591;28;20199;-70
2022/11/17 03:08:27;;;;;;;33.97;19.67;;;10.80;99.90;;;;;;5095118;28;20693;-71
2022/11/17 03:11:07;;;;;;;33.88;19.95;;;10.80;99.90;;;;;;5094760;28;20529;-71
2022/11/17 03:13:53;;;;;;;37.90;23.02;;;10.80;99.90;;;;;;5094991;28;20267;-70
2022/11/17 03:16:26;;;;;;;38.85;21.75;;;10.70;99.90;;;;;;5094532;28;20204;-70
2022/11/17 03:19:00;;;;;;;36.65;22.00;;;10.70;99.90;;;;;;5093483;28;20261;-70
2022/11/17 03:21:30;;;;;;;42.50;22.75;;;10.70;99.90;;;;;;5093142;28;20180;-70
2022/11/17 03:24:05;;;;;;;44.38;22.98;;;10.70;99.90;;;;;;5093375;28;20698;-70
2022/11/17 03:26:36;;;;;;;45.17;22.70;;;10.60;99.90;;;;;;5093182;28;20311;-71
2022/11/17 03:29:06;;;;;;;35.60;21.23;;;10.60;99.90;;;;;;5092907;28;20176;-70
2022/11/17 03:31:34;;;;;;;39.70;21.88;;;10.60;99.90;;;;;;5093069;28;20226;-70
2022/11/17 03:34:02;;;;;;;41.60;24.30;;;10.60;99.90;;;;;;5092925;28;20176;-70
2022/11/17 03:36:38;;;;;;;44.88;22.58;;;10.60;99.90;;;;;;5092883;28;20195;-71
2022/11/17 03:39:25;;;;;;;38.88;22.60;;;10.60;99.90;;;;;;5094653;28;20255;-70
2022/11/17 03:41:58;;;;;;;44.78;24.55;;;10.60;99.90;;;;;;5092877;28;20168;-71
2022/11/17 03:44:28;;;;;;;40.65;22.90;;;10.60;99.90;;;;;;5094054;28;20236;-70
2022/11/17 03:46:56;;;;;;;44.08;24.77;;;10.60;99.90;;;;;;5094084;28;20538;-70
2022/11/17 03:49:34;;;;;;;40.25;22.95;;;10.60;99.90;;;;;;5093939;28;20198;-70
2022/11/17 03:52:00;;;;;;;41.28;22.05;;;10.50;99.90;;;;;;5092832;28;20225;-70
2022/11/17 03:54:25;;;;;;;45.93;21.57;;;10.50;99.90;;;;;;5093860;28;20644;-71
2022/11/17 03:57:05;;;;;;;39.77;22.77;;;10.50;99.90;;;;;;5092609;28;20409;-70
2022/11/17 03:59:35;;;;;;;37.45;23.08;;;10.50;99.90;;;;;;5093960;28;20547;-70
2022/11/17 04:02:01;;;;;;;42.70;23.02;;;10.50;99.90;;;;;;5092710;28;20224;-70
2022/11/17 04:05:04;;;;;;;38.37;22.43;;;10.50;99.90;;;;;;5093884;28;20196;-71
2022/11/17 04:07:12;;;;;;;43.05;23.02;;;10.50;99.90;;;;;;5093994;28;20192;-70
2022/11/17 04:09:38;;;;;;;43.67;23.60;;;10.50;99.90;;;;;;5092465;28;20201;-71
2022/11/17 04:17:31;;;;;;;40.63;22.88;;;10.50;99.90;;;;;;5093917;28;20535;-70
2022/11/17 04:19:57;;;;;;;39.27;23.43;;;10.50;99.90;;;;;;5093703;28;20188;-70
2022/11/17 04:22:23;;;;;;;36.47;20.90;;;10.50;99.90;;;;;;5092314;28;20715;-70
2022/11/17 04:24:48;;;;;;;38.67;21.37;;;10.50;99.90;;;;;;5093418;28;20554;-70
2022/11/17 04:29:58;;;;;;;34.90;20.75;;;10.50;99.90;;;;;;5098117;28;20203;-71
2022/11/17 04:32:24;;;;;;;36.57;19.80;;;10.50;99.90;;;;;;5097829;28;20180;-71
2022/11/17 04:34:49;;;;;;;46.37;23.27;;;10.50;99.90;;;;;;5096535;28;20616;-70
2022/11/17 04:37:17;;;;;;;39.87;22.63;;;10.60;99.90;;;;;;5097699;28;20184;-70
2022/11/17 04:39:44;;;;;;;37.33;21.15;;;10.50;99.90;;;;;;5097405;28;20215;-70
2022/11/17 04:42:10;;;;;;;39.08;22.45;;;10.50;99.90;;;;;;5097528;28;20237;-70
2022/11/17 04:44:36;;;;;;;38.63;20.33;;;10.50;99.90;;;;;;5097388;28;20228;-70
2022/11/17 04:47:02;;;;;;;37.40;20.10;;;10.50;99.90;;;;;;5096178;28;20176;-70
2022/11/17 04:49:30;;;;;;;38.63;21.73;;;10.50;99.90;;;;;;5097341;28;20185;-70
2022/11/17 04:51:55;;;;;;;39.83;20.95;;;10.50;99.90;;;;;;5096125;28;20626;-70
2022/11/17 04:54:25;;;;;;;36.13;21.10;;;10.40;99.90;;;;;;5095524;28;20200;-70
2022/11/17 04:56:52;;;;;;;35.33;21.38;;;10.40;99.90;;;;;;5097234;28;20950;-70
2022/11/17 04:59:17;;;;;;;42.88;20.15;;;10.40;99.90;;;;;;5097081;28;20204;-70
2022/11/17 05:01:43;;;;;;;36.47;19.83;;;10.40;99.90;;;;;;5097191;28;20284;-71
2022/11/17 05:04:11;;;;;;;34.13;20.03;;;10.40;99.90;;;;;;5097419;28;20180;-71
2022/11/17 05:06:43;;;;;;;36.30;20.13;;;10.30;99.90;;;;;;5096516;28;20173;-70
2022/11/17 05:09:16;;;;;;;34.45;21.17;;;10.30;99.90;;;;;;5096977;28;20180;-70
2022/11/17 05:14:27;;;;;;;31.98;19.10;;;10.20;99.90;;;;;;5096703;28;20243;-70
2022/11/17 05:17:08;;;;;;;32.67;18.10;;;10.20;99.90;;;;;;5096876;28;20535;-70
2022/11/17 05:19:44;;;;;;;29.65;17.80;;;10.10;99.90;;;;;;5096816;28;20212;-70
2022/11/17 05:24:57;;;;;;;36.83;18.85;;;10.10;99.90;;;;;;5098677;28;20363;-70
2022/11/17 05:27:24;;;;;;;34.00;18.52;;;10.00;99.90;;;;;;5116897;28;20176;-71
2022/11/17 05:29:49;;;;;;;34.70;19.10;;;10.00;99.90;;;;;;5097958;28;20286;-71
2022/11/17 05:32:15;;;;;;;29.83;17.20;;;10.00;99.90;;;;;;5117086;28;20569;-70
2022/11/17 05:34:41;;;;;;;28.43;16.33;;;10.00;99.90;;;;;;5116989;28;20200;-70
2022/11/17 05:37:06;;;;;;;31.87;17.83;;;10.00;99.90;;;;;;5116454;28;20412;-70
2022/11/17 05:39:32;;;;;;;33.70;19.90;;;10.00;99.90;;;;;;5098404;28;20234;-70
2022/11/17 05:41:58;;;;;;;33.83;18.57;;;10.00;99.90;;;;;;5117041;28;20200;-71
2022/11/17 05:44:23;;;;;;;30.87;17.83;;;10.00;99.90;;;;;;5097909;28;20714;-70
2022/11/17 05:46:49;;;;;;;27.93;16.00;;;9.90;99.90;;;;;;5116621;28;20176;-70
2022/11/17 05:49:14;;;;;;;35.67;17.33;;;9.90;99.90;;;;;;5098304;28;20175;-70
2022/11/17 05:51:40;;;;;;;27.37;16.73;;;9.90;99.90;;;;;;5106769;28;20236;-71
2022/11/17 05:54:06;;;;;;;34.70;18.27;;;9.90;99.90;;;;;;5094552;28;20198;-70
2022/11/17 05:56:40;;;;;;;27.77;15.57;;;9.80;99.90;;;;;;5114407;28;20203;-70
2022/11/17 05:59:08;;;;;;;29.48;15.95;;;9.80;99.90;;;;;;5098262;28;20223;-70
2022/11/17 06:01:38;;;;;;;31.83;19.05;;;9.90;99.90;;;;;;5098049;28;20179;-71
2022/11/17 06:04:06;;;;;;;30.60;17.15;;;9.80;99.90;;;;;;5097980;28;20499;-70
2022/11/17 06:06:34;;;;;;;30.75;17.85;;;9.80;99.90;;;;;;5116364;28;20172;-70
2022/11/17 06:08:59;;;;;;;31.77;17.23;;;9.80;99.90;;;;;;5097795;28;20191;-71
2022/11/17 06:11:26;;;;;;;35.30;19.23;;;9.70;99.90;;;;;;5097817;28;20176;-70
2022/11/17 06:13:52;;;;;;;33.63;18.58;;;9.70;99.90;;;;;;5116653;28;20709;-70
2022/11/17 06:16:21;;;;;;;32.47;18.67;;;9.60;99.90;;;;;;5097252;28;20219;-70
2022/11/17 06:18:51;;;;;;;33.55;18.38;;;9.60;99.90;;;;;;5114523;28;20215;-72
2022/11/17 06:21:17;;;;;;;34.78;19.02;;;9.60;99.90;;;;;;5097100;28;20192;-72
2022/11/17 06:23:45;;;;;;;32.07;18.00;;;9.50;99.90;;;;;;5114870;28;20194;-71
2022/11/17 06:26:11;;;;;;;33.85;18.70;;;9.50;99.90;;;;;;5094474;28;20460;-70
2022/11/17 06:28:38;;;;;;;31.73;18.60;;;9.50;99.90;;;;;;5094958;28;20289;-70
2022/11/17 06:31:05;;;;;;;156.63;88.50;;;9.40;99.90;;;;;;5095666;28;20463;-71
2022/11/17 06:33:32;;;;;;;38.47;23.48;;;9.40;99.90;;;;;;5113869;28;20666;-71
2022/11/17 06:36:00;;;;;;;34.20;18.63;;;9.30;99.90;;;;;;5112820;28;20200;-70
2022/11/17 06:38:26;;;;;;;35.08;19.25;;;9.30;99.90;;;;;;5113464;28;20790;-70
2022/11/17 06:40:52;;;;;;;54.83;33.85;;;9.20;99.90;;;;;;5096736;28;20273;-70
2022/11/17 06:43:17;;;;;;;36.83;20.53;;;9.20;99.90;;;;;;5079492;28;20185;-71
2022/11/17 06:45:44;;;;;;;34.03;18.13;;;9.30;99.90;;;;;;5074167;28;20200;-71
2022/11/17 06:48:13;;;;;;;37.45;19.13;;;9.30;99.90;;;;;;5098496;28;20213;-71
2022/11/17 06:50:39;;;;;;;35.63;18.33;;;9.30;99.90;;;;;;5092146;28;20250;-71
2022/11/17 06:53:07;;;;;;;39.63;22.00;;;9.30;99.90;;;;;;5091999;28;20191;-71
2022/11/17 06:55:33;;;;;;;37.40;20.63;;;9.30;99.90;;;;;;5110036;28;20557;-71
2022/11/17 06:58:00;;;;;;;31.05;19.00;;;9.30;99.90;;;;;;5089102;28;20210;-70
2022/11/17 07:00:27;;;;;;;30.58;17.73;;;9.30;99.90;;;;;;5107696;28;20252;-71
2022/11/17 07:03:05;;;;;;;34.70;19.33;;;9.30;99.90;;;;;;5111097;28;20180;-70
2022/11/17 07:05:31;;;;;;;36.45;18.63;;;9.30;99.90;;;;;;5111044;28;20278;-70
2022/11/17 07:07:59;;;;;;;32.63;17.92;;;9.30;99.90;;;;;;5091590;28;20229;-71
2022/11/17 07:10:26;;;;;;;31.63;16.52;;;9.30;99.90;;;;;;5092646;28;20222;-70
2022/11/17 07:12:51;;;;;;;25.40;15.68;;;9.30;99.90;;;;;;5090262;28;20180;-72
2022/11/17 07:15:17;;;;;;;27.80;16.77;;;9.40;99.90;;;;;;5090595;28;20202;-71
2022/11/17 07:17:43;;;;;;;26.00;15.57;;;9.40;99.90;;;;;;5090037;28;20649;-71
2022/11/17 07:20:09;;;;;;;32.10;17.60;;;9.50;99.90;;;;;;5088525;28;20700;-71
2022/11/17 07:22:35;;;;;;;28.13;16.85;;;9.50;99.90;;;;;;5109926;28;20176;-72
2022/11/17 07:25:01;;;;;;;27.63;16.77;;;9.70;99.90;;;;;;5102881;28;20262;-71
2022/11/17 07:27:26;;;;;;;25.43;15.40;;;9.90;99.90;;;;;;5104919;28;20597;-71
2022/11/17 07:29:52;;;;;;;54.00;36.30;;;10.10;99.90;;;;;;5112450;28;20197;-71
2022/11/17 07:32:19;;;;;;;28.90;19.50;;;10.30;99.90;;;;;;5093617;28;20226;-72
2022/11/17 07:34:44;;;;;;;22.60;15.20;;;10.50;99.90;;;;;;5089807;28;20231;-72
2022/11/17 07:37:10;;;;;;;21.00;14.53;;;10.70;99.90;;;;;;5104574;28;20219;-71
2022/11/17 07:39:36;;;;;;;24.50;17.33;;;11.00;99.90;;;;;;5104186;28;20468;-71
2022/11/17 07:42:02;;;;;;;22.10;13.07;;;11.20;99.90;;;;;;5104167;28;20204;-71
2022/11/17 07:44:27;;;;;;;20.20;12.97;;;11.60;99.90;;;;;;5090140;28;20227;-71
2022/11/17 07:46:54;;;;;;;18.50;12.07;;;12.00;99.90;;;;;;5110270;28;20180;-71
2022/11/17 07:49:20;;;;;;;35.90;26.30;;;12.60;99.90;;;;;;5094358;28;20199;-71
2022/11/17 07:51:45;;;;;;;26.00;17.00;;;13.20;99.90;;;;;;5093679;28;20443;-72
2022/11/17 07:54:11;;;;;;;19.27;13.20;;;13.60;99.90;;;;;;5112208;28;20221;-71
2022/11/17 07:56:36;;;;;;;16.87;11.70;;;13.90;99.90;;;;;;5112829;28;20194;-72
2022/11/17 07:59:02;;;;;;;15.30;10.23;;;13.90;99.90;;;;;;5113678;28;20264;-71
2022/11/17 08:01:28;;;;;;;17.30;12.40;;;13.80;99.90;;;;;;5094016;28;20228;-71
2022/11/17 08:03:54;;;;;;;17.87;11.67;;;13.80;99.90;;;;;;5112015;28;20168;-71
2022/11/17 08:06:20;;;;;;;14.90;11.50;;;13.80;99.90;;;;;;5102894;28;20956;-72
2022/11/17 08:08:48;;;;;;;20.47;12.40;;;13.80;99.90;;;;;;5092700;28;20853;-71
2022/11/17 08:11:14;;;;;;;16.17;11.20;;;14.00;99.90;;;;;;5111366;28;20227;-71
2022/11/17 08:13:41;;;;;;;16.00;10.97;;;14.30;99.90;;;;;;5107700;28;20510;-72
2022/11/17 08:16:08;;;;;;;15.93;10.90;;;14.60;99.90;;;;;;5089749;28;20200;-72
2022/11/17 08:18:34;;;;;;;18.37;11.00;;;15.00;99.90;;;;;;5109264;28;20675;-72
2022/11/17 08:21:01;;;;;;;14.37;10.87;;;15.40;99.90;;;;;;5113024;28;20412;-71
2022/11/17 08:23:26;;;;;;;19.60;11.17;;;15.80;99.90;;;;;;5092146;28;20447;-71
2022/11/17 08:25:52;;;;;;;17.90;11.70;;;16.00;99.90;;;;;;5080491;28;20556;-71
2022/11/17 08:28:18;;;;;;;14.93;10.10;;;16.00;99.90;;;;;;5096585;28;20195;-73
2022/11/17 08:30:43;;;;;;;14.00;9.77;;;16.10;99.90;;;;;;5089205;28;20195;-71
2022/11/17 08:33:09;;;;;;;14.23;9.87;;;16.20;99.90;;;;;;5083015;28;20230;-71
2022/11/17 08:35:34;;;;;;;19.90;11.23;;;16.00;99.90;;;;;;5083649;28;20203;-71
2022/11/17 08:38:00;;;;;;;14.33;10.13;;;15.90;99.90;;;;;;5105916;28;20702;-73
2022/11/17 08:40:26;;;;;;;16.13;10.90;;;15.60;99.90;;;;;;5099901;28;20212;-72
2022/11/17 08:42:53;;;;;;;16.23;11.17;;;15.20;99.90;;;;;;5080089;28;20183;-72
2022/11/17 08:45:19;;;;;;;14.83;9.50;;;14.80;99.90;;;;;;5089829;28;20695;-71
2022/11/17 08:47:44;;;;;;;13.23;9.10;;;14.30;99.90;;;;;;5108647;28;20456;-71
2022/11/17 08:50:10;;;;;;;14.50;10.03;;;14.00;99.90;;;;;;5109861;28;20200;-71
2022/11/17 08:52:36;;;;;;;16.87;11.20;;;13.70;99.90;;;;;;5110672;28;20180;-71
2022/11/17 08:55:04;;;;;;;15.07;11.17;;;13.50;99.90;;;;;;5108784;28;20681;-71
2022/11/17 08:57:30;;;;;;;16.57;11.20;;;13.20;99.90;;;;;;5104735;28;20203;-72
2022/11/17 08:59:56;;;;;;;18.10;10.93;;;13.00;99.90;;;;;;5104497;28;20528;-72
2022/11/17 09:02:22;;;;;;;20.60;11.83;;;12.80;99.90;;;;;;5107672;28;20440;-71
2022/11/17 09:04:49;;;;;;;19.50;12.30;;;12.70;99.90;;;;;;5090965;28;20442;-73
2022/11/17 09:07:15;;;;;;;16.93;10.67;;;12.50;99.90;;;;;;5112394;28;20182;-75
2022/11/17 09:09:40;;;;;;;14.00;10.83;;;12.40;99.90;;;;;;5110824;28;20448;-72
2022/11/17 09:12:06;;;;;;;15.63;10.10;;;12.30;99.90;;;;;;5091372;28;20182;-72
2022/11/17 09:14:32;;;;;;;20.70;10.70;;;12.20;99.90;;;;;;5111714;28;20248;-73
2022/11/17 09:16:58;;;;;;;18.20;10.47;;;12.10;99.90;;;;;;5095057;28;20168;-71
2022/11/17 09:19:23;;;;;;;15.03;9.83;;;12.10;99.90;;;;;;5113204;28;20490;-72
2022/11/17 09:21:49;;;;;;;15.60;10.23;;;12.00;99.90;;;;;;5111892;28;20176;-73
2022/11/17 09:24:14;;;;;;;18.40;11.07;;;12.10;99.90;;;;;;5095166;28;20183;-73
2022/11/17 09:26:40;;;;;;;14.97;9.40;;;12.20;99.90;;;;;;5114047;28;20250;-71
2022/11/17 09:29:07;;;;;;;22.37;13.30;;;12.30;99.90;;;;;;5109141;28;20219;-72
2022/11/17 09:31:34;;;;;;;14.80;10.03;;;12.30;99.90;;;;;;5100743;28;20428;-72
2022/11/17 09:34:00;;;;;;;15.43;9.87;;;12.20;99.90;;;;;;5078067;28;21053;-71
2022/11/17 09:36:25;;;;;;;16.10;10.17;;;12.30;99.90;;;;;;5091507;28;20535;-71
2022/11/17 09:38:51;;;;;;;18.80;11.60;;;12.50;99.90;;;;;;5100848;28;20475;-72
2022/11/17 09:41:25;;;;;;;16.90;11.40;;;12.70;99.90;;;;;;5089869;28;20203;-71
2022/11/17 09:44:02;;;;;;;18.13;10.50;;;12.80;99.90;;;;;;5102482;28;20435;-71
2022/11/17 09:47:00;;;;;;;16.27;9.93;;;12.80;99.90;;;;;;5109268;28;20428;-71
2022/11/17 09:49:28;;;;;;;14.07;9.33;;;12.80;99.90;;;;;;5068543;28;20467;-72
2022/11/17 09:51:59;;;;;;;16.00;10.90;;;12.80;99.90;;;;;;5100806;28;20824;-72
2022/11/17 09:54:57;;;;;;;15.77;10.20;;;12.80;99.90;;;;;;5110451;28;20454;-71
2022/11/17 09:57:46;;;;;;;17.07;10.83;;;12.80;99.90;;;;;;5107140;28;20959;-73
2022/11/17 10:00:13;;;;;;;14.87;9.90;;;12.70;99.90;;;;;;5090903;28;20455;-72
2022/11/17 10:02:40;;;;;;;13.93;8.90;;;12.60;99.90;;;;;;5100679;28;20432;-72
2022/11/17 10:05:13;;;;;;;17.43;10.47;;;12.50;99.90;;;;;;5082514;28;20513;-72
2022/11/17 10:07:45;;;;;;;15.73;10.30;;;12.40;99.90;;;;;;5088749;28;20508;-73
2022/11/17 10:10:20;;;;;;;19.63;12.73;;;12.30;99.90;;;;;;5115295;28;20420;-73
2022/11/17 10:12:51;;;;;;;18.90;10.73;;;12.20;99.90;;;;;;5113815;28;20411;-72
2022/11/17 10:15:31;;;;;;;17.90;10.83;;;12.20;99.90;;;;;;5093871;28;20452;-72
2022/11/17 10:17:57;;;;;;;25.47;15.80;;;12.20;99.90;;;;;;5111576;28;20868;-72
2022/11/17 10:20:22;;;;;;;17.40;11.90;;;12.20;99.90;;;;;;5109251;28;20523;-73
2022/11/17 10:22:50;;;;;;;16.10;10.67;;;12.20;99.90;;;;;;5107720;27;20649;-73
2022/11/17 10:25:40;;;;;;;17.70;9.93;;;12.30;99.90;;;;;;5101994;28;20239;-73
2022/11/17 10:28:16;;;;;;;17.43;11.10;;;12.40;99.90;;;;;;5105474;28;20516;-73
2022/11/17 10:30:54;;;;;;;16.40;11.23;;;12.40;99.90;;;;;;5103599;28;20450;-73
2022/11/17 10:33:33;;;;;;;17.50;10.67;;;12.50;99.90;;;;;;5084260;28;20839;-72
2022/11/17 10:36:00;;;;;;;14.60;10.67;;;12.50;99.90;;;;;;5102798;28;20439;-73
2022/11/17 10:38:28;;;;;;;15.23;10.43;;;12.60;99.90;;;;;;5107776;28;20476;-73
2022/11/17 10:40:57;;;;;;;18.00;13.40;;;12.60;99.90;;;;;;5083056;28;20585;-73
2022/11/17 10:43:27;;;;;;;14.13;10.30;;;12.70;99.90;;;;;;5100948;28;20958;-73
2022/11/17 10:45:59;;;;;;;13.93;9.77;;;12.70;99.90;;;;;;5099169;28;21003;-73
2022/11/17 10:48:36;;;;;;;16.57;9.93;;;12.70;99.90;;;;;;5088514;28;20634;-73
2022/11/17 10:51:22;;;;;;;19.50;11.93;;;12.70;99.90;;;;;;5102212;28;20447;-73
2022/11/17 10:54:20;;;;;;;16.37;11.13;;;12.70;99.90;;;;;;5091686;28;20805;-72
2022/11/17 10:56:48;;;;;;;14.60;10.03;;;12.70;99.90;;;;;;5092032;28;20412;-72
2022/11/17 10:59:29;;;;;;;16.90;10.57;;;12.70;99.90;;;;;;5111325;28;20522;-73
2022/11/17 11:01:55;;;;;;;14.80;9.53;;;12.80;99.90;;;;;;5090000;28;20533;-72
2022/11/17 11:04:33;;;;;;;13.90;9.97;;;12.80;99.90;;;;;;5111207;28;20443;-73
2022/11/17 11:07:13;;;;;;;18.57;11.50;;;12.80;99.90;;;;;;5094262;28;20931;-73
2022/11/17 11:09:59;;;;;;;17.93;10.70;;;12.80;99.90;;;;;;5076961;28;20544;-73
2022/11/17 11:12:35;;;;;;;16.77;10.83;;;12.80;99.90;;;;;;5092411;28;20493;-73
2022/11/17 11:15:02;;;;;;;16.33;11.27;;;12.80;99.90;;;;;;5111453;28;20438;-73
2022/11/17 11:17:28;;;;;;;12.80;10.30;;;12.70;99.90;;;;;;5090454;28;20472;-74
2022/11/17 11:19:55;;;;;;;14.30;8.80;;;12.60;99.90;;;;;;5088727;28;20539;-73
2022/11/17 11:22:40;;;;;;;13.20;9.10;;;12.60;99.90;;;;;;5092566;28;20428;-74
2022/11/17 11:25:22;;;;;;;18.33;11.67;;;12.60;99.90;;;;;;5109832;28;20544;-73
2022/11/17 11:28:21;;;;;;;13.77;9.57;;;12.60;99.90;;;;;;5111233;28;20424;-73
2022/11/17 11:31:05;;;;;;;14.57;9.17;;;12.60;99.90;;;;;;5107530;28;20436;-74
2022/11/17 11:33:41;;;;;;;12.47;8.20;;;12.60;99.90;;;;;;5091714;28;20480;-73
2022/11/17 11:36:09;;;;;;;14.77;10.07;;;12.60;99.90;;;;;;5089214;28;20459;-74
2022/11/17 11:38:54;;;;;;;10.60;8.00;;;12.60;99.90;;;;;;5093077;28;20532;-74
2022/11/17 11:41:34;;;;;;;12.63;8.90;;;12.50;99.90;;;;;;5107646;28;20467;-73
2022/11/17 11:44:39;;;;;;;13.00;8.53;;;12.60;99.90;;;;;;5103655;28;20428;-73
2022/11/17 11:47:32;;;;;;;11.20;8.47;;;12.60;99.90;;;;;;5099213;28;20436;-73
2022/11/17 11:50:08;;;;;;;9.10;7.73;;;12.70;99.90;;;;;;5108399;28;20523;-73
2022/11/17 11:52:36;;;;;;;9.93;7.23;;;12.80;99.90;;;;;;5101163;28;20447;-74
2022/11/17 11:55:17;;;;;;;11.50;8.90;;;12.80;99.90;;;;;;5101829;28;20440;-74
2022/11/17 11:57:55;;;;;;;9.40;8.07;;;12.80;99.90;;;;;;5108218;28;20431;-72
2022/11/17 12:00:21;;;;;;;13.63;8.70;;;12.80;99.90;;;;;;5106881;28;20463;-72
2022/11/17 12:02:58;;;;;;;10.17;7.70;;;12.80;99.90;;;;;;5102929;28;20436;-71
2022/11/17 12:06:38;;;;;;;12.27;8.00;;;12.80;99.90;;;;;;5101198;28;20972;-72
2022/11/17 12:08:58;;;;;;;17.10;11.17;;;12.80;99.90;;;;;;5105701;28;20435;-73
2022/11/17 12:14:16;;;;;;;12.53;9.80;;;12.80;99.90;;;;;;5108947;28;20503;-72
2022/11/17 12:16:43;;;;;;;11.43;8.37;;;12.80;99.90;;;;;;5109973;28;20484;-72
2022/11/17 12:19:43;;;;;;;9.63;7.43;;;12.90;99.90;;;;;;5109829;28;20471;-72
2022/11/17 12:22:15;;;;;;;10.83;8.40;;;12.90;99.90;;;;;;5085518;28;20459;-72
2022/11/17 12:24:41;;;;;;;11.20;8.77;;;12.90;99.90;;;;;;5090482;28;20833;-72
2022/11/17 12:27:34;;;;;;;14.80;9.73;;;12.90;99.90;;;;;;5091937;28;20438;-73
2022/11/17 12:30:02;;;;;;;11.93;7.70;;;13.00;99.90;;;;;;5086695;28;20735;-72
2022/11/17 12:32:43;;;;;;;14.30;9.67;;;13.10;99.90;;;;;;5104414;28;20441;-72
2022/11/17 12:35:36;;;;;;;11.83;8.80;;;13.10;99.90;;;;;;5108341;28;20973;-72
2022/11/17 12:38:14;;;;;;;12.53;8.73;;;13.20;99.90;;;;;;5089571;28;20477;-73
2022/11/17 12:40:44;;;;;;;11.57;8.27;;;13.30;99.90;;;;;;5089177;28;20863;-74
2022/11/17 12:43:23;;;;;;;11.83;9.07;;;13.40;99.90;;;;;;5102522;28;20711;-73
2022/11/17 12:45:54;;;;;;;11.37;8.53;;;13.40;99.90;;;;;;5080411;28;20475;-74
2022/11/17 12:48:25;;;;;;;12.73;8.03;;;13.50;99.90;;;;;;5100324;28;20439;-74
2022/11/17 12:51:24;;;;;;;12.57;8.90;;;13.50;99.90;;;;;;5099167;27;20447;-74
2022/11/17 12:54:14;;;;;;;14.07;9.43;;;13.50;99.90;;;;;;5103577;28;20441;-74
2022/11/17 12:56:54;;;;;;;13.13;8.97;;;13.50;99.90;;;;;;5076696;28;20440;-74
2022/11/17 12:59:22;;;;;;;10.13;7.70;;;13.50;99.90;;;;;;5106134;28;20506;-75
2022/11/17 13:02:18;;;;;;;15.67;9.67;;;13.50;99.90;;;;;;5089081;28;20861;-74
2022/11/17 13:04:53;;;;;;;15.40;9.53;;;13.50;99.90;;;;;;5105721;28;20463;-73
2022/11/17 13:07:22;;;;;;;12.67;9.03;;;13.40;99.90;;;;;;5090302;28;20534;-74
2022/11/17 13:09:56;;;;;;;13.87;8.80;;;13.40;99.90;;;;;;5109151;28;20451;-73
2022/11/17 13:12:27;;;;;;;16.07;10.30;;;13.40;99.90;;;;;;5115000;28;20431;-73
2022/11/17 13:15:04;;;;;;;14.47;9.20;;;13.40;99.90;;;;;;5112352;27;20450;-74
2022/11/17 13:17:39;;;;;;;13.80;10.13;;;13.40;99.90;;;;;;5110474;28;20583;-73
2022/11/17 13:20:27;;;;;;;12.70;9.20;;;13.30;99.90;;;;;;5092413;28;20474;-73